Jenksville, New York
Current Conditions -  °F | °C
As of 3:53 AM on Wednesday 26 Nov 2014 (Local Time) from KBGM Reporting Station
Clear Clear  
Wind Chill: 31°   Ceiling: Unl
Heat Index: 31°   Visibility: 10mi
Dew Point: 25°   Wind: 0mph
Humidity: 79%   Direction: NA
Pressure: 30.15"   Gusts: NA
Location:  42.3124°N, 76.194°W
Report Text: KBGM 260853Z AUTO 00000KT 10SM CLR M01/M04 A3015 RMK AO2 SLP223 T10061039 50008
Loading
Personal Weather Stations






























Interactive Weather Map New forecast layout! Learn more

10-Day Weather Forecast

Advertisements
Track Severe Weather on mobile